Details for Air Canada Jazz at CYYC




Go Back


Latest METAR
Local Time

CYYC 252200Z 23006KT 130V250 40SM SCT086 25/04 A2977 RMK CU3 SLP077 DENSITY ALT 5700FT

25/05/2018, 16:28:25

Description
Results
Air Canada Jazz Logo
Number of Pilots based at CYYC
0 Pilots Based here
Number of Air Canada Jazz Flights Departed from CYYC
0 Flights Departed
Number of Air Canada Jazz Flights Arrived at CYYC
0 Flights Arrived
Number of Air Canada Jazz Schedules Departing from CYYC
0 Schedules
Number of Air Canada Jazz Schedules Arriving at CYYC
0 Schedules
Number of Air Canada Jazz Schedules Departing from CYYC availible today
0 Schedules Today
Number of Air Canada Jazz Schedules Arriving at CYYC availible today
0 Schedules Today
Average Landing Rate at CYYC
-189 fpm
Air Canada Jazz Average Landing Rate at CYYC
0 fpm
Total Fuel Purchased at CYYC by Air Canada Jazz
0.00 kgs / 0.00 lbs

Pilots Based at CYYC


Pilot ID
Pilot Name
Pilot Rank
No. of Flights
No. of Flying Hours
There are no pilots assigned to this hub!   Will you be the first?
Content